createdAt,value
2018-04-06T00:00:04.089Z,98365.81
2018-04-06T00:02:30.401Z,98365.75
2018-04-06T00:04:56.628Z,98368.95
2018-04-06T00:07:22.893Z,98366.38
2018-04-06T00:09:49.145Z,98369.20
2018-04-06T00:12:15.393Z,98375.63
2018-04-06T00:14:41.673Z,98379.47
2018-04-06T00:17:07.921Z,98382.19
2018-04-06T00:19:34.180Z,98392.42
2018-04-06T00:22:00.447Z,98390.73
2018-04-06T00:24:26.740Z,98385.29
2018-04-06T00:26:52.968Z,98398.52
2018-04-06T00:29:19.208Z,98392.54
2018-04-06T00:31:45.473Z,98399.61
2018-04-06T00:34:11.708Z,98396.25
2018-04-06T00:36:37.985Z,98400.75
2018-04-06T00:39:04.403Z,98416.17
2018-04-06T00:41:30.737Z,98425.02
2018-04-06T00:43:56.984Z,98424.03
2018-04-06T00:46:23.249Z,98420.81
2018-04-06T00:48:49.493Z,98417.47
2018-04-06T00:51:15.740Z,98420.94
2018-04-06T00:53:47.008Z,98425.59
2018-04-06T00:56:13.253Z,98425.18
2018-04-06T00:58:39.514Z,98441.53
2018-04-06T01:01:05.980Z,98442.62
2018-04-06T01:03:32.253Z,98440.36
2018-04-06T01:05:58.505Z,98440.59
2018-04-06T01:08:24.847Z,98447.83
2018-04-06T01:10:51.109Z,98439.93
2018-04-06T01:13:17.374Z,98449.47
2018-04-06T01:15:43.637Z,98451.11
2018-04-06T01:18:09.882Z,98462.61
2018-04-06T01:20:36.132Z,98464.20
2018-04-06T01:23:02.373Z,98465.86
2018-04-06T01:25:28.640Z,98470.42
2018-04-06T01:27:54.896Z,98472.25
2018-04-06T01:30:21.129Z,98468.00
2018-04-06T01:32:47.419Z,98469.39
2018-04-06T01:35:13.676Z,98473.41
2018-04-06T01:37:39.929Z,98465.94
2018-04-06T01:40:06.197Z,98470.23
2018-04-06T01:42:32.462Z,98486.13
2018-04-06T01:44:59.796Z,98484.47
2018-04-06T01:47:26.065Z,98480.50
2018-04-06T01:49:52.331Z,98485.55
2018-04-06T01:52:18.601Z,98490.67
2018-04-06T01:54:44.878Z,98489.73
2018-04-06T01:57:11.104Z,98486.29
2018-04-06T01:59:37.364Z,98492.45
2018-04-06T02:02:03.648Z,98490.91
2018-04-06T02:04:29.961Z,98491.29
2018-04-06T02:06:56.196Z,98494.66
2018-04-06T02:09:22.480Z,98497.69
2018-04-06T02:11:48.722Z,98500.61
2018-04-06T02:14:14.988Z,98498.44
2018-04-06T02:16:41.541Z,98491.78
2018-04-06T02:19:07.830Z,98492.46
2018-04-06T02:21:34.128Z,98492.64
2018-04-06T02:24:00.448Z,98507.09
2018-04-06T02:26:26.700Z,98512.47
2018-04-06T02:28:52.969Z,98501.48
2018-04-06T02:31:19.271Z,98510.59
2018-04-06T02:33:45.580Z,98502.20
2018-04-06T02:36:11.829Z,98498.24
2018-04-06T02:38:38.087Z,98513.89
2018-04-06T02:41:04.368Z,98519.14
2018-04-06T02:43:30.625Z,98510.20
2018-04-06T02:45:56.868Z,98512.51
2018-04-06T02:48:23.134Z,98514.55
2018-04-06T02:50:49.369Z,98512.48
2018-04-06T02:53:15.643Z,98515.73
2018-04-06T02:55:41.881Z,98517.07
2018-04-06T02:58:08.112Z,98509.56
2018-04-06T03:00:34.374Z,98504.16
2018-04-06T03:03:00.669Z,98508.92
2018-04-06T03:05:26.910Z,98508.03
2018-04-06T03:07:53.180Z,98515.20
2018-04-06T03:10:19.473Z,98514.14
2018-04-06T03:12:45.709Z,98516.21
2018-04-06T03:15:12.002Z,98511.98
2018-04-06T03:17:38.257Z,98511.11
2018-04-06T03:20:04.508Z,98509.77
2018-04-06T03:22:30.816Z,98514.34
2018-04-06T03:24:57.064Z,98519.06
2018-04-06T03:27:23.320Z,98522.12
2018-04-06T03:29:49.566Z,98518.92
2018-04-06T03:32:15.829Z,98516.72
2018-04-06T03:34:42.080Z,98514.23
2018-04-06T03:37:08.346Z,98524.53
2018-04-06T03:39:34.620Z,98525.60
2018-04-06T03:42:00.877Z,98528.23
2018-04-06T03:44:27.241Z,98524.70
2018-04-06T03:46:53.493Z,98529.37
2018-04-06T03:49:19.745Z,98530.36
2018-04-06T03:51:45.980Z,98525.36
2018-04-06T03:54:12.290Z,98532.13
2018-04-06T03:56:38.532Z,98531.47
2018-04-06T03:59:04.845Z,98522.46
2018-04-06T04:01:31.102Z,98531.33
2018-04-06T04:03:57.340Z,98532.28
2018-04-06T04:06:23.681Z,98533.59
2018-04-06T04:08:49.948Z,98532.02
2018-04-06T04:11:16.332Z,98543.09
2018-04-06T04:13:42.634Z,98542.88
2018-04-06T04:16:08.930Z,98551.37
2018-04-06T04:18:35.189Z,98547.16
2018-04-06T04:21:01.481Z,98547.89
2018-04-06T04:23:27.724Z,98553.92
2018-04-06T04:25:54.021Z,98567.32
2018-04-06T04:28:20.297Z,98565.67
2018-04-06T04:30:46.544Z,98569.02
2018-04-06T04:33:12.829Z,98574.34
2018-04-06T04:35:39.082Z,98577.69
2018-04-06T04:38:05.374Z,98569.47
2018-04-06T04:40:31.653Z,98573.05
2018-04-06T04:42:57.925Z,98578.75
2018-04-06T04:45:24.206Z,98582.38
2018-04-06T04:47:50.466Z,98582.00
2018-04-06T04:50:16.891Z,98583.95
2018-04-06T04:52:43.168Z,98585.46
2018-04-06T04:55:09.465Z,98583.88
2018-04-06T04:57:35.792Z,98587.20
2018-04-06T05:00:02.108Z,98587.80
2018-04-06T05:02:28.377Z,98591.22
2018-04-06T05:04:54.637Z,98598.83
2018-04-06T05:07:20.897Z,98599.94
2018-04-06T05:09:47.169Z,98590.28
2018-04-06T05:12:13.437Z,98590.99
2018-04-06T05:14:39.685Z,98592.88
2018-04-06T05:17:05.969Z,98596.52
2018-04-06T05:19:32.207Z,98603.64
2018-04-06T05:21:58.480Z,98606.06
2018-04-06T05:24:24.762Z,98607.48
2018-04-06T05:26:50.993Z,98602.09
2018-04-06T05:29:17.285Z,98600.58
2018-04-06T05:31:43.562Z,98601.63
2018-04-06T05:34:09.928Z,98602.98
2018-04-06T05:36:36.164Z,98607.69
2018-04-06T05:39:02.504Z,98614.55
2018-04-06T05:41:28.733Z,98614.18
2018-04-06T05:43:55.007Z,98612.92
2018-04-06T05:46:21.250Z,98614.22
2018-04-06T05:48:47.509Z,98611.96
2018-04-06T05:51:13.765Z,98624.06
2018-04-06T05:53:40.017Z,98626.69
2018-04-06T05:56:06.286Z,98622.34
2018-04-06T05:58:32.517Z,98631.63
2018-04-06T06:00:58.824Z,98625.06
2018-04-06T06:03:26.236Z,98628.63
2018-04-06T06:05:52.508Z,98630.58
2018-04-06T06:08:18.745Z,98639.03
2018-04-06T06:10:45.001Z,98644.91
2018-04-06T06:13:11.274Z,98638.77
2018-04-06T06:15:37.510Z,98642.19
2018-04-06T06:18:03.785Z,98646.13
2018-04-06T06:20:30.065Z,98652.35
2018-04-06T06:22:56.325Z,98658.42
2018-04-06T06:25:22.567Z,98654.84
2018-04-06T06:27:48.857Z,98661.61
2018-04-06T06:30:15.100Z,98658.79
2018-04-06T06:32:41.340Z,98665.10
2018-04-06T06:35:07.592Z,98668.23
2018-04-06T06:37:33.842Z,98666.26
2018-04-06T06:40:00.128Z,98666.42
2018-04-06T06:44:59.341Z,98666.58
2018-04-06T06:47:25.577Z,98669.69
2018-04-06T06:49:51.841Z,98661.24
2018-04-06T06:52:18.085Z,98663.25
2018-04-06T06:54:44.345Z,98671.28
2018-04-06T06:57:10.624Z,98671.28
2018-04-06T06:59:36.889Z,98674.61
2018-04-06T07:02:03.169Z,98674.36
2018-04-06T07:04:29.416Z,98668.09
2018-04-06T07:06:55.672Z,98675.84
2018-04-06T07:09:21.965Z,98677.22
2018-04-06T07:11:48.237Z,98675.42
2018-04-06T07:14:14.476Z,98670.45
2018-04-06T07:16:40.719Z,98672.21
2018-04-06T07:19:06.977Z,98674.97
2018-04-06T07:21:33.217Z,98676.18
2018-04-06T07:23:59.477Z,98674.67
2018-04-06T07:26:25.725Z,98671.41
2018-04-06T07:28:52.149Z,98673.25
2018-04-06T07:31:18.426Z,98671.39
2018-04-06T07:33:44.704Z,98667.50
2018-04-06T07:36:10.983Z,98674.36
2018-04-06T07:38:37.224Z,98674.82
2018-04-06T07:41:03.520Z,98674.61
2018-04-06T07:43:29.776Z,98669.77
2018-04-06T07:45:56.041Z,98671.75
2018-04-06T07:48:22.288Z,98675.34
2018-04-06T07:50:48.556Z,98677.68
2018-04-06T07:53:14.814Z,98676.09
2018-04-06T07:55:41.077Z,98673.31
2018-04-06T07:58:07.310Z,98663.76
2018-04-06T08:00:33.549Z,98669.27
2018-04-06T08:02:59.809Z,98661.77
2018-04-06T08:05:26.047Z,98668.47
2018-04-06T08:07:52.340Z,98671.59
2018-04-06T08:10:18.623Z,98668.20
2018-04-06T08:12:44.929Z,98666.89
2018-04-06T08:15:11.154Z,98672.50
2018-04-06T08:17:37.447Z,98668.77
2018-04-06T08:20:03.729Z,98665.95
2018-04-06T08:22:29.978Z,98671.56
2018-04-06T08:24:56.241Z,98668.38
2018-04-06T08:27:22.485Z,98673.84
2018-04-06T08:29:48.762Z,98667.19
2018-04-06T08:32:15.021Z,98672.18
2018-04-06T08:34:41.276Z,98667.84
2018-04-06T08:37:07.539Z,98671.39
2018-04-06T08:39:33.816Z,98672.83
2018-04-06T08:42:00.076Z,98672.09
2018-04-06T08:44:26.321Z,98670.52
2018-04-06T08:46:52.597Z,98670.68
2018-04-06T08:49:18.904Z,98666.94
2018-04-06T08:51:45.190Z,98668.64
2018-04-06T08:54:11.420Z,98661.72
2018-04-06T08:56:37.672Z,98658.47
2018-04-06T08:59:03.912Z,98662.44
2018-04-06T09:01:30.183Z,98660.52
2018-04-06T09:03:56.416Z,98660.22
2018-04-06T09:06:22.658Z,98651.33
2018-04-06T09:08:48.917Z,98651.12
2018-04-06T09:11:15.179Z,98642.90
2018-04-06T09:13:41.428Z,98641.92
2018-04-06T09:16:07.755Z,98648.24
2018-04-06T09:18:34.057Z,98651.72
2018-04-06T09:21:00.281Z,98650.22
2018-04-06T09:23:26.637Z,98648.00
2018-04-06T09:25:52.864Z,98650.06
2018-04-06T09:28:19.118Z,98648.80
2018-04-06T09:30:45.373Z,98648.64
2018-04-06T09:33:11.612Z,98647.92
2018-04-06T09:35:37.888Z,98642.13
2018-04-06T09:38:04.129Z,98645.30
2018-04-06T09:40:30.385Z,98637.57
2018-04-06T09:42:56.653Z,98643.28
2018-04-06T09:45:22.912Z,98645.86
2018-04-06T09:47:49.144Z,98636.96
2018-04-06T09:50:15.391Z,98638.13
2018-04-06T09:52:41.668Z,98635.50
2018-04-06T09:55:07.921Z,98638.16
2018-04-06T09:57:34.185Z,98631.17
2018-04-06T10:00:00.417Z,98629.90
2018-04-06T10:02:26.704Z,98627.02
2018-04-06T10:04:52.950Z,98618.23
2018-04-06T10:07:19.245Z,98614.72
2018-04-06T10:09:45.518Z,98616.09
2018-04-06T10:12:11.774Z,98616.64
2018-04-06T10:14:38.068Z,98610.55
2018-04-06T10:17:04.316Z,98605.14
2018-04-06T10:19:30.642Z,98611.11
2018-04-06T10:21:56.946Z,98606.77
2018-04-06T10:24:23.174Z,98599.59
2018-04-06T10:26:49.433Z,98596.34
2018-04-06T10:29:15.708Z,98595.27
2018-04-06T10:31:41.950Z,98593.40
2018-04-06T10:34:08.198Z,98591.78
2018-04-06T10:36:34.469Z,98583.52
2018-04-06T10:39:00.970Z,98580.52
2018-04-06T10:41:27.269Z,98583.67
2018-04-06T10:43:53.540Z,98575.97
2018-04-06T10:46:19.805Z,98579.12
2018-04-06T10:48:46.048Z,98572.30
2018-04-06T10:51:12.309Z,98573.36
2018-04-06T10:53:38.573Z,98572.64
2018-04-06T10:56:04.826Z,98562.17
2018-04-06T10:58:31.136Z,98562.57
2018-04-06T11:00:57.389Z,98563.10
2018-04-06T11:03:23.642Z,98564.27
2018-04-06T11:05:49.927Z,98553.00
2018-04-06T11:08:16.182Z,98556.56
2018-04-06T11:13:15.380Z,98550.89
2018-04-06T11:15:41.625Z,98550.36
2018-04-06T11:18:07.897Z,98551.02
2018-04-06T11:20:34.178Z,98549.19
2018-04-06T11:23:00.420Z,98551.46
2018-04-06T11:25:26.699Z,98550.63
2018-04-06T11:27:52.953Z,98543.48
2018-04-06T11:30:19.240Z,98546.27
2018-04-06T11:32:45.481Z,98549.56
2018-04-06T11:35:11.740Z,98541.81
2018-04-06T11:37:37.989Z,98541.34
2018-04-06T11:40:04.248Z,98542.45
2018-04-06T11:42:30.510Z,98535.66
2018-04-06T11:44:56.785Z,98523.76
2018-04-06T11:47:23.044Z,98537.21
2018-04-06T11:49:49.317Z,98527.61
2018-04-06T11:52:15.581Z,98516.52
2018-04-06T11:54:41.816Z,98515.69
2018-04-06T11:57:08.057Z,98506.77
2018-04-06T11:59:34.313Z,98509.56
2018-04-06T12:02:00.585Z,98511.53
2018-04-06T12:04:26.885Z,98502.27
2018-04-06T12:06:53.136Z,98494.38
2018-04-06T12:09:19.401Z,98493.69
2018-04-06T12:11:45.674Z,98487.69
2018-04-06T12:14:11.937Z,98485.59
2018-04-06T12:16:38.198Z,98484.53
2018-04-06T12:19:04.445Z,98482.14
2018-04-06T12:21:30.705Z,98480.66
2018-04-06T12:23:56.969Z,98475.34
2018-04-06T12:26:23.219Z,98474.21
2018-04-06T12:28:49.457Z,98471.02
2018-04-06T12:31:15.736Z,98470.39
2018-04-06T12:33:41.979Z,98464.55
2018-04-06T12:36:08.269Z,98459.69
2018-04-06T12:38:34.570Z,98452.69
2018-04-06T12:41:00.769Z,98454.17
2018-04-06T12:43:27.024Z,98453.05
2018-04-06T12:45:53.256Z,98451.83
2018-04-06T12:48:19.532Z,98444.74
2018-04-06T12:50:45.773Z,98439.03
2018-04-06T12:53:12.037Z,98441.09
2018-04-06T12:55:38.278Z,98437.77
2018-04-06T12:58:04.560Z,98433.13
2018-04-06T13:00:30.833Z,98431.22
2018-04-06T13:02:57.113Z,98427.72
2018-04-06T13:05:23.344Z,98416.97
2018-04-06T13:07:49.573Z,98421.94
2018-04-06T13:10:15.864Z,98424.23
2018-04-06T13:12:42.104Z,98427.61
2018-04-06T13:15:08.362Z,98429.64
2018-04-06T13:17:34.669Z,98414.53
2018-04-06T13:20:00.916Z,98415.16
2018-04-06T13:22:27.151Z,98412.12
2018-04-06T13:24:53.376Z,98399.73
2018-04-06T13:27:19.624Z,98396.00
2018-04-06T13:29:45.896Z,98396.81
2018-04-06T13:32:12.175Z,98388.32
2018-04-06T13:34:38.417Z,98387.47
2018-04-06T13:37:04.680Z,98385.77
2018-04-06T13:39:30.932Z,98382.61
2018-04-06T13:41:57.197Z,98386.11
2018-04-06T13:44:23.476Z,98373.39
2018-04-06T13:46:49.800Z,98371.41
2018-04-06T13:49:16.383Z,98374.09
2018-04-06T13:51:42.726Z,98371.91
2018-04-06T13:54:09.029Z,98381.05
2018-04-06T13:56:35.261Z,98378.97
2018-04-06T13:59:01.561Z,98372.36
2018-04-06T14:01:27.808Z,98374.84
2018-04-06T14:03:54.164Z,98376.34
2018-04-06T14:06:20.432Z,98375.05
2018-04-06T14:08:46.706Z,98367.92
2018-04-06T14:11:12.978Z,98359.08
2018-04-06T14:13:39.277Z,98357.93
2018-04-06T14:16:05.689Z,98359.46
2018-04-06T14:18:31.948Z,98352.41
2018-04-06T14:20:58.427Z,98349.50
2018-04-06T14:23:24.719Z,98346.78
2018-04-06T14:25:58.072Z,98342.05
2018-04-06T14:28:24.309Z,98339.51
2018-04-06T14:30:50.913Z,98336.03
2018-04-06T14:33:17.571Z,98328.77
2018-04-06T14:35:44.119Z,98331.41
2018-04-06T14:38:10.536Z,98334.95
2018-04-06T14:40:37.070Z,98335.16
2018-04-06T14:43:03.392Z,98322.44
2018-04-06T14:45:29.848Z,98321.09
2018-04-06T14:47:56.291Z,98320.61
2018-04-06T14:50:22.546Z,98309.69
2018-04-06T14:52:48.869Z,98310.31
2018-04-06T14:55:15.528Z,98308.91
2018-04-06T14:57:42.000Z,98310.41
2018-04-06T15:00:08.300Z,98306.92
2018-04-06T15:02:34.805Z,98313.75
2018-04-06T15:05:01.224Z,98300.86
2018-04-06T15:07:34.748Z,98306.41
2018-04-06T15:10:01.024Z,98301.46
2018-04-06T15:12:27.316Z,98307.72
2018-04-06T15:14:53.837Z,98304.40
2018-04-06T15:17:20.467Z,98293.83
2018-04-06T15:19:47.008Z,98297.42
2018-04-06T15:22:13.407Z,98308.32
2018-04-06T15:24:39.680Z,98295.58
2018-04-06T15:27:07.044Z,98297.00
2018-04-06T15:29:35.078Z,98291.46
2018-04-06T15:32:02.232Z,98292.23
2018-04-06T15:34:28.949Z,98280.08
2018-04-06T15:36:55.983Z,98290.61
2018-04-06T15:39:23.181Z,98287.70
2018-04-06T15:41:50.038Z,98288.17
2018-04-06T15:44:16.970Z,98286.50
2018-04-06T15:46:44.221Z,98287.13
2018-04-06T15:49:11.422Z,98291.81
2018-04-06T15:51:41.280Z,98287.30
2018-04-06T15:54:08.332Z,98292.41
2018-04-06T15:56:35.846Z,98293.86
2018-04-06T15:59:02.561Z,98294.06
2018-04-06T16:01:29.339Z,98287.42
2018-04-06T16:03:55.623Z,98292.45
2018-04-06T16:06:22.242Z,98290.82
2018-04-06T16:08:48.731Z,98290.06
2018-04-06T16:11:15.515Z,98293.27
2018-04-06T16:13:42.217Z,98287.80
2018-04-06T16:16:08.644Z,98293.72
2018-04-06T16:18:34.900Z,98295.11
2018-04-06T16:21:01.482Z,98293.59
2018-04-06T16:23:28.124Z,98294.64
2018-04-06T16:25:54.381Z,98292.64
2018-04-06T16:28:20.724Z,98297.32
2018-04-06T16:30:47.313Z,98297.96
2018-04-06T16:33:14.524Z,98300.27
2018-04-06T16:35:41.043Z,98295.63
2018-04-06T16:38:07.435Z,98296.33
2018-04-06T16:40:33.685Z,98293.30
2018-04-06T16:42:59.932Z,98292.70
2018-04-06T16:45:26.233Z,98291.75
2018-04-06T16:47:52.480Z,98293.03
2018-04-06T16:50:19.748Z,98300.41
2018-04-06T16:52:45.981Z,98291.67
2018-04-06T16:55:13.397Z,98291.19
2018-04-06T16:57:39.641Z,98282.59
2018-04-06T17:00:05.989Z,98292.25
2018-04-06T17:02:32.329Z,98287.75
2018-04-06T17:04:59.461Z,98288.64
2018-04-06T17:07:25.750Z,98288.27
2018-04-06T17:09:52.011Z,98290.14
2018-04-06T17:12:18.296Z,98288.94
2018-04-06T17:14:44.582Z,98288.17
2018-04-06T17:17:10.870Z,98290.45
2018-04-06T17:19:37.252Z,98287.67
2018-04-06T17:22:03.508Z,98283.54
2018-04-06T17:24:29.759Z,98287.19
2018-04-06T17:26:56.009Z,98279.08
2018-04-06T17:29:22.289Z,98283.43
2018-04-06T17:31:48.520Z,98283.00
2018-04-06T17:34:14.833Z,98285.05
2018-04-06T17:36:41.068Z,98279.73
2018-04-06T17:39:07.400Z,98287.12
2018-04-06T17:41:33.673Z,98292.52
2018-04-06T17:43:59.936Z,98291.20
2018-04-06T17:46:26.191Z,98297.12
2018-04-06T17:48:52.437Z,98303.61
2018-04-06T17:51:18.688Z,98300.84
2018-04-06T17:53:44.928Z,98306.00
2018-04-06T17:56:11.175Z,98300.87
2018-04-06T17:58:37.562Z,98306.09
2018-04-06T18:01:03.841Z,98303.00
2018-04-06T18:03:30.184Z,98310.89
2018-04-06T18:05:56.508Z,98307.45
2018-04-06T18:08:22.789Z,98310.45
2018-04-06T18:10:49.033Z,98312.44
2018-04-06T18:13:15.329Z,98321.02
2018-04-06T18:15:41.649Z,98315.52
2018-04-06T18:18:07.912Z,98321.33
2018-04-06T18:20:34.161Z,98323.50
2018-04-06T18:23:00.473Z,98327.48
2018-04-06T18:25:26.722Z,98328.84
2018-04-06T18:27:53.011Z,98331.94
2018-04-06T18:30:19.276Z,98335.31
2018-04-06T18:32:45.558Z,98339.95
2018-04-06T18:35:11.821Z,98342.38
2018-04-06T18:37:38.120Z,98343.69
2018-04-06T18:40:04.428Z,98344.37
2018-04-06T18:42:30.690Z,98346.91
2018-04-06T18:44:57.048Z,98350.05
2018-04-06T18:47:23.340Z,98346.89
2018-04-06T18:49:49.590Z,98343.98
2018-04-06T18:52:15.866Z,98340.25
2018-04-06T18:54:42.530Z,98353.55
2018-04-06T18:57:08.877Z,98354.45
2018-04-06T18:59:35.310Z,98355.69
2018-04-06T19:02:01.927Z,98359.03
2018-04-06T19:04:28.499Z,98364.63
2018-04-06T19:06:54.864Z,98358.81
2018-04-06T19:09:21.341Z,98362.21
2018-04-06T19:11:47.626Z,98361.47
2018-04-06T19:14:13.909Z,98352.13
2018-04-06T19:16:40.157Z,98347.66
2018-04-06T19:19:06.853Z,98341.36
2018-04-06T19:21:33.461Z,98334.91
2018-04-06T19:23:59.905Z,98335.17
2018-04-06T19:26:26.242Z,98336.05
2018-04-06T19:28:52.562Z,98344.34
2018-04-06T19:31:19.187Z,98339.89
2018-04-06T19:33:45.507Z,98337.68
2018-04-06T19:36:11.814Z,98333.54
2018-04-06T19:38:38.344Z,98332.80
2018-04-06T19:41:04.601Z,98327.39
2018-04-06T19:43:30.903Z,98328.42
2018-04-06T19:45:57.180Z,98328.98
2018-04-06T19:48:23.712Z,98325.20
2018-04-06T19:50:50.117Z,98315.05
2018-04-06T19:53:16.550Z,98318.92
2018-04-06T19:55:42.897Z,98314.83
2018-04-06T19:58:09.145Z,98316.60
2018-04-06T20:00:35.757Z,98318.78
2018-04-06T20:03:02.398Z,98324.48
2018-04-06T20:05:28.761Z,98320.80
2018-04-06T20:07:55.352Z,98317.51
2018-04-06T20:10:21.810Z,98318.80
2018-04-06T20:12:48.095Z,98313.62
2018-04-06T20:15:14.589Z,98311.30
2018-04-06T20:17:40.876Z,98299.13
2018-04-06T20:20:07.120Z,98296.88
2018-04-06T20:22:33.648Z,98290.41
2018-04-06T20:25:00.058Z,98288.56
2018-04-06T20:27:26.534Z,98274.23
2018-04-06T20:29:52.984Z,98282.11
2018-04-06T20:32:19.249Z,98270.48
2018-04-06T20:34:45.665Z,98275.45
2018-04-06T20:37:12.029Z,98276.19
2018-04-06T20:39:38.378Z,98273.27
2018-04-06T20:42:04.701Z,98271.35
2018-04-06T20:44:30.947Z,98269.13
2018-04-06T20:46:57.330Z,98263.73
2018-04-06T20:49:23.669Z,98259.59
2018-04-06T20:51:50.041Z,98259.50
2018-04-06T20:54:16.382Z,98253.27
2018-04-06T20:56:42.697Z,98252.44
2018-04-06T20:59:09.051Z,98249.91
2018-04-06T21:01:35.345Z,98246.44
2018-04-06T21:04:01.781Z,98247.28
2018-04-06T21:06:28.025Z,98240.73
2018-04-06T21:08:54.328Z,98235.88
2018-04-06T21:11:20.580Z,98238.20
2018-04-06T21:13:47.093Z,98237.73
2018-04-06T21:16:13.356Z,98237.34
2018-04-06T21:18:39.748Z,98230.88
2018-04-06T21:21:06.013Z,98232.59
2018-04-06T21:23:32.293Z,98233.88
2018-04-06T21:25:58.521Z,98234.10
2018-04-06T21:28:25.049Z,98234.27
2018-04-06T21:30:51.317Z,98230.85
2018-04-06T21:33:17.629Z,98232.34
2018-04-06T21:35:43.996Z,98229.24
2018-04-06T21:38:10.408Z,98227.16
2018-04-06T21:40:36.800Z,98225.45
2018-04-06T21:43:03.226Z,98226.89
2018-04-06T21:45:29.670Z,98222.29
2018-04-06T21:47:55.985Z,98222.28
2018-04-06T21:50:22.544Z,98218.52
2018-04-06T21:52:48.882Z,98205.59
2018-04-06T21:55:15.178Z,98206.20
2018-04-06T21:57:41.542Z,98207.64
2018-04-06T22:00:07.905Z,98202.87
2018-04-06T22:02:35.508Z,98197.91
2018-04-06T22:05:01.754Z,98195.84
2018-04-06T22:07:28.032Z,98196.13
2018-04-06T22:09:54.325Z,98191.13
2018-04-06T22:12:20.566Z,98197.20
2018-04-06T22:14:46.858Z,98187.97
2018-04-06T22:17:13.112Z,98186.34
2018-04-06T22:19:39.392Z,98186.66
2018-04-06T22:22:05.627Z,98192.76
2018-04-06T22:24:31.884Z,98190.68
2018-04-06T22:26:58.107Z,98181.63
2018-04-06T22:29:24.369Z,98180.69
2018-04-06T22:31:50.614Z,98180.47
2018-04-06T22:34:16.945Z,98181.80
2018-04-06T22:36:43.198Z,98173.71
2018-04-06T22:39:09.433Z,98174.28
2018-04-06T22:41:35.712Z,98165.69
2018-04-06T22:44:01.961Z,98167.52
2018-04-06T22:46:28.440Z,98166.58
2018-04-06T22:48:54.664Z,98165.13
2018-04-06T22:51:20.945Z,98160.81
2018-04-06T22:53:47.194Z,98158.69
2018-04-06T22:56:13.521Z,98160.32
2018-04-06T22:58:39.825Z,98160.54
2018-04-06T23:01:06.065Z,98158.48
2018-04-06T23:03:32.308Z,98159.45
2018-04-06T23:05:58.596Z,98160.05
2018-04-06T23:08:24.852Z,98157.98
2018-04-06T23:10:51.084Z,98150.14
2018-04-06T23:13:17.346Z,98146.36
2018-04-06T23:15:43.576Z,98149.29
2018-04-06T23:18:10.044Z,98152.17
2018-04-06T23:20:36.302Z,98147.84
2018-04-06T23:23:02.587Z,98147.09
2018-04-06T23:25:28.837Z,98147.34
2018-04-06T23:27:55.066Z,98139.86
2018-04-06T23:30:21.312Z,98135.25
2018-04-06T23:32:47.569Z,98144.66
2018-04-06T23:35:13.845Z,98130.23
2018-04-06T23:37:40.094Z,98133.01
2018-04-06T23:40:06.326Z,98124.34
2018-04-06T23:42:32.594Z,98124.75
2018-04-06T23:44:58.823Z,98114.69
2018-04-06T23:47:25.081Z,98116.84
2018-04-06T23:49:51.317Z,98111.51
2018-04-06T23:52:17.811Z,98103.67
2018-04-06T23:54:44.049Z,98105.75
2018-04-06T23:57:10.297Z,98097.47
2018-04-06T23:59:36.524Z,98102.84
